createdAt,value
2018-10-19T00:02:14.876Z,8.50
2018-10-19T00:04:42.866Z,9.13
2018-10-19T00:07:11.873Z,9.50
2018-10-19T00:09:39.907Z,8.37
2018-10-19T00:12:07.947Z,9.00
2018-10-19T00:14:36.190Z,9.10
2018-10-19T00:17:04.346Z,8.57
2018-10-19T00:19:33.305Z,9.07
2018-10-19T00:22:01.344Z,8.53
2018-10-19T00:24:30.334Z,9.47
2018-10-19T00:26:58.325Z,9.50
2018-10-19T00:29:26.978Z,10.07
2018-10-19T00:31:54.973Z,7.50
2018-10-19T00:34:29.441Z,9.00
2018-10-19T00:36:58.491Z,8.87
2018-10-19T00:39:26.491Z,8.33
2018-10-19T00:41:54.516Z,7.93
2018-10-19T00:44:22.524Z,9.57
2018-10-19T00:46:50.590Z,8.20
2018-10-19T00:49:19.684Z,8.70
2018-10-19T00:51:47.724Z,8.80
2018-10-19T00:54:15.738Z,8.27
2018-10-19T00:56:43.770Z,8.67
2018-10-19T00:59:11.830Z,8.30
2018-10-19T01:01:46.401Z,8.53
2018-10-19T01:04:14.405Z,8.23
2018-10-19T01:06:42.445Z,9.50
2018-10-19T01:09:17.237Z,8.13
2018-10-19T01:11:45.237Z,8.77
2018-10-19T01:14:13.281Z,7.47
2018-10-19T01:16:41.962Z,7.43
2018-10-19T01:19:09.994Z,8.77
2018-10-19T01:21:38.010Z,9.03
2018-10-19T01:24:06.071Z,8.70
2018-10-19T01:26:34.106Z,8.10
2018-10-19T01:29:02.193Z,9.03
2018-10-19T01:31:30.152Z,9.23
2018-10-19T01:33:58.189Z,8.43
2018-10-19T01:36:31.660Z,9.07
2018-10-19T01:38:59.718Z,7.13
2018-10-19T01:41:27.701Z,7.30
2018-10-19T01:43:55.733Z,8.57
2018-10-19T01:46:23.762Z,8.60
2018-10-19T01:48:51.803Z,8.07
2018-10-19T01:51:19.810Z,7.43
2018-10-19T01:53:47.842Z,9.30
2018-10-19T01:56:15.862Z,7.40
2018-10-19T01:58:43.913Z,8.87
2018-10-19T02:01:11.919Z,7.83
2018-10-19T02:03:39.941Z,8.27
2018-10-19T02:06:07.959Z,8.50
2018-10-19T02:08:35.994Z,7.37
2018-10-19T02:11:04.025Z,7.30
2018-10-19T02:13:32.041Z,9.10
2018-10-19T02:16:00.055Z,8.77
2018-10-19T02:18:28.094Z,8.10
2018-10-19T02:20:56.139Z,8.10
2018-10-19T02:23:24.126Z,8.90
2018-10-19T02:25:52.157Z,9.23
2018-10-19T02:28:26.760Z,9.20
2018-10-19T02:30:54.765Z,8.57
2018-10-19T02:33:22.816Z,8.90
2018-10-19T02:35:50.829Z,9.90
2018-10-19T02:38:18.873Z,7.57
2018-10-19T02:40:53.551Z,8.47
2018-10-19T02:43:21.558Z,7.63
2018-10-19T02:45:49.578Z,7.90
2018-10-19T02:48:17.633Z,8.80
2018-10-19T02:50:45.638Z,7.87
2018-10-19T02:53:13.698Z,8.03
2018-10-19T02:55:41.662Z,8.40
2018-10-19T02:58:09.661Z,8.23
2018-10-19T03:00:37.682Z,7.30
2018-10-19T03:03:05.729Z,8.37
2018-10-19T03:05:33.717Z,7.90
2018-10-19T03:08:01.810Z,7.70
2018-10-19T03:10:30.272Z,9.33
2018-10-19T03:12:58.265Z,8.80
2018-10-19T03:15:26.289Z,7.60
2018-10-19T03:17:54.297Z,8.30
2018-10-19T03:20:22.341Z,8.10
2018-10-19T03:22:50.362Z,9.47
2018-10-19T03:25:19.413Z,8.17
2018-10-19T03:27:47.381Z,7.60
2018-10-19T03:30:15.422Z,9.30
2018-10-19T03:32:43.421Z,7.83
2018-10-19T03:35:12.505Z,8.80
2018-10-19T03:37:40.502Z,7.57
2018-10-19T03:40:08.534Z,8.10
2018-10-19T03:42:36.547Z,9.00
2018-10-19T03:45:04.701Z,8.67
2018-10-19T03:47:32.671Z,9.70
2018-10-19T03:50:00.718Z,8.30
2018-10-19T03:52:28.726Z,8.40
2018-10-19T03:54:56.757Z,7.60
2018-10-19T03:57:24.789Z,7.70
2018-10-19T03:59:52.830Z,9.43
2018-10-19T04:02:21.841Z,8.60
2018-10-19T04:04:49.878Z,8.13
2018-10-19T04:07:17.889Z,7.80
2018-10-19T04:09:45.950Z,9.53
2018-10-19T04:12:13.966Z,9.10
2018-10-19T04:14:42.010Z,8.07
2018-10-19T04:17:10.049Z,9.80
2018-10-19T04:19:38.051Z,8.60
2018-10-19T04:22:06.058Z,8.20
2018-10-19T04:24:34.117Z,9.33
2018-10-19T04:27:02.167Z,8.33
2018-10-19T04:29:30.130Z,7.73
2018-10-19T04:31:59.222Z,9.37
2018-10-19T04:34:27.237Z,9.40
2018-10-19T04:36:58.974Z,8.27
2018-10-19T04:39:26.995Z,8.07
2018-10-19T04:41:55.128Z,6.97
2018-10-19T04:44:23.074Z,9.50
2018-10-19T04:46:51.098Z,9.10
2018-10-19T04:49:19.129Z,9.37
2018-10-19T04:51:47.174Z,8.17
2018-10-19T04:54:15.192Z,8.60
2018-10-19T04:56:43.223Z,9.43
2018-10-19T04:59:11.330Z,8.07
2018-10-19T05:01:39.256Z,8.60
2018-10-19T05:04:07.335Z,9.37
2018-10-19T05:06:35.496Z,8.40
2018-10-19T05:09:04.472Z,8.47
2018-10-19T05:11:32.506Z,9.10
2018-10-19T05:14:00.543Z,7.80
2018-10-19T05:16:28.546Z,8.67
2018-10-19T05:18:56.562Z,8.20
2018-10-19T05:21:24.591Z,9.30
2018-10-19T05:23:52.648Z,9.07
2018-10-19T05:26:21.687Z,8.40
2018-10-19T05:28:49.703Z,7.77
2018-10-19T05:31:17.745Z,9.30
2018-10-19T05:33:45.758Z,9.10
2018-10-19T05:36:14.766Z,8.77
2018-10-19T05:38:42.777Z,8.70
2018-10-19T05:41:10.921Z,8.40
2018-10-19T05:43:38.922Z,8.07
2018-10-19T05:46:06.866Z,7.97
2018-10-19T05:48:34.905Z,8.83
2018-10-19T05:51:02.932Z,8.03
2018-10-19T05:53:30.965Z,8.17
2018-10-19T05:55:59.049Z,7.77
2018-10-19T05:58:27.638Z,8.97
2018-10-19T06:00:56.302Z,8.37
2018-10-19T06:03:25.027Z,8.37
2018-10-19T06:05:53.804Z,8.20
2018-10-19T06:08:22.565Z,7.93
2018-10-19T06:10:51.227Z,8.30
2018-10-19T06:13:19.953Z,8.10
2018-10-19T06:15:47.997Z,8.80
2018-10-19T06:18:16.045Z,9.23
2018-10-19T06:20:44.062Z,8.20
2018-10-19T06:23:13.166Z,9.30
2018-10-19T06:25:41.150Z,9.67
2018-10-19T06:28:09.173Z,21.77
2018-10-19T06:30:37.188Z,26.97
2018-10-19T06:33:05.245Z,29.60
2018-10-19T06:35:33.250Z,28.83
2018-10-19T06:38:01.331Z,33.17
2018-10-19T06:40:29.334Z,31.80
2018-10-19T06:42:57.325Z,31.67
2018-10-19T06:45:25.415Z,29.83
2018-10-19T06:47:53.425Z,30.47
2018-10-19T06:50:21.558Z,29.03
2018-10-19T06:52:49.511Z,27.80
2018-10-19T06:55:19.658Z,27.80
2018-10-19T06:57:47.783Z,26.30
2018-10-19T07:00:16.453Z,27.67
2018-10-19T07:02:44.461Z,24.23
2018-10-19T07:05:12.555Z,25.60
2018-10-19T07:07:40.545Z,25.13
2018-10-19T07:10:09.537Z,23.00
2018-10-19T07:12:37.625Z,21.47
2018-10-19T07:15:06.740Z,23.47
2018-10-19T07:17:34.857Z,21.87
2018-10-19T07:20:02.959Z,21.60
2018-10-19T07:22:31.093Z,23.20
2018-10-19T07:25:00.161Z,21.10
2018-10-19T07:27:28.197Z,19.10
2018-10-19T07:29:56.207Z,19.33
2018-10-19T07:32:24.236Z,20.60
2018-10-19T07:34:52.264Z,21.33
2018-10-19T07:37:20.297Z,17.70
2018-10-19T07:39:48.305Z,18.80
2018-10-19T07:42:16.446Z,18.63
2018-10-19T07:44:44.394Z,18.70
2018-10-19T07:47:12.540Z,17.00
2018-10-19T07:49:41.485Z,19.10
2018-10-19T07:52:09.513Z,17.37
2018-10-19T07:54:37.553Z,17.17
2018-10-19T07:57:05.536Z,15.43
2018-10-19T07:59:33.572Z,16.23
2018-10-19T08:02:01.606Z,17.03
2018-10-19T08:04:29.593Z,15.40
2018-10-19T08:06:57.608Z,16.10
2018-10-19T08:09:25.696Z,14.77
2018-10-19T08:11:53.706Z,15.67
2018-10-19T08:14:21.738Z,15.40
2018-10-19T08:16:49.752Z,16.97
2018-10-19T08:19:17.769Z,15.20
2018-10-19T08:21:45.784Z,15.77
2018-10-19T08:24:13.793Z,13.87
2018-10-19T08:26:41.807Z,13.93
2018-10-19T08:29:09.938Z,13.97
2018-10-19T08:31:37.880Z,14.53
2018-10-19T08:34:06.089Z,13.77
2018-10-19T08:36:34.137Z,14.20
2018-10-19T08:39:02.177Z,12.60
2018-10-19T08:41:30.191Z,13.97
2018-10-19T08:43:58.197Z,13.87
2018-10-19T08:46:31.808Z,12.27
2018-10-19T08:48:59.849Z,12.43
2018-10-19T08:51:27.860Z,14.00
2018-10-19T08:53:55.886Z,13.10
2018-10-19T08:56:23.889Z,14.20
2018-10-19T08:58:52.006Z,14.80
2018-10-19T09:01:20.041Z,13.00
2018-10-19T09:03:48.049Z,13.47
2018-10-19T09:06:17.093Z,12.43
2018-10-19T09:08:45.101Z,12.27
2018-10-19T09:11:13.346Z,14.23
2018-10-19T09:13:41.272Z,12.30
2018-10-19T09:16:09.575Z,11.10
2018-10-19T09:18:37.678Z,12.10
2018-10-19T09:21:05.688Z,12.70
2018-10-19T09:23:33.662Z,11.57
2018-10-19T09:26:01.699Z,12.20
2018-10-19T09:28:29.707Z,11.67
2018-10-19T09:30:57.737Z,10.93
2018-10-19T09:33:25.770Z,14.67
2018-10-19T09:35:53.865Z,12.63
2018-10-19T09:38:21.822Z,11.90
2018-10-19T09:40:49.904Z,10.63
2018-10-19T09:43:17.956Z,10.83
2018-10-19T09:45:45.958Z,11.23
2018-10-19T09:48:13.976Z,12.33
2018-10-19T09:50:42.003Z,12.93
2018-10-19T09:53:10.095Z,11.23
2018-10-19T09:55:38.045Z,13.20
2018-10-19T09:58:06.210Z,14.10
2018-10-19T10:00:39.653Z,14.47
2018-10-19T10:03:07.818Z,13.87
2018-10-19T10:05:35.857Z,11.77
2018-10-19T10:08:04.070Z,13.90
2018-10-19T10:10:32.170Z,14.07
2018-10-19T10:13:00.217Z,11.43
2018-10-19T10:15:29.387Z,12.37
2018-10-19T10:17:57.381Z,10.57
2018-10-19T10:20:26.417Z,11.33
2018-10-19T10:22:54.445Z,13.37
2018-10-19T10:25:22.530Z,12.07
2018-10-19T10:27:50.502Z,12.07
2018-10-19T10:30:18.541Z,14.07
2018-10-19T10:32:46.577Z,11.03
2018-10-19T10:35:14.594Z,14.53
2018-10-19T10:37:42.602Z,14.27
2018-10-19T10:40:10.658Z,14.20
2018-10-19T10:42:39.197Z,12.67
2018-10-19T10:45:08.614Z,13.57
2018-10-19T10:47:36.616Z,14.70
2018-10-19T10:50:05.001Z,13.57
2018-10-19T10:52:33.006Z,16.13
2018-10-19T10:55:01.097Z,13.30
2018-10-19T10:57:29.033Z,11.90
2018-10-19T10:59:57.065Z,11.30
2018-10-19T11:02:25.070Z,12.20
2018-10-19T11:04:53.105Z,10.30
2018-10-19T11:07:21.245Z,11.37
2018-10-19T11:09:49.121Z,10.10
2018-10-19T11:12:17.165Z,11.60
2018-10-19T11:14:45.182Z,14.30
2018-10-19T11:17:13.237Z,13.13
2018-10-19T11:19:42.253Z,10.30
2018-10-19T11:22:10.316Z,13.20
2018-10-19T11:24:38.333Z,8.90
2018-10-19T11:27:06.356Z,8.80
2018-10-19T11:29:34.379Z,13.87
2018-10-19T11:32:02.901Z,13.70
2018-10-19T11:34:30.918Z,14.47
2018-10-19T11:36:58.958Z,15.17
2018-10-19T11:39:27.994Z,16.97
2018-10-19T11:41:56.025Z,10.63
2018-10-19T11:44:24.125Z,9.83
2018-10-19T11:46:52.171Z,10.90
2018-10-19T11:49:20.249Z,11.87
2018-10-19T11:51:48.549Z,9.27
2018-10-19T11:54:17.617Z,14.10
2018-10-19T11:56:45.666Z,12.20
2018-10-19T11:59:13.673Z,13.53
2018-10-19T12:01:41.701Z,11.80
2018-10-19T12:04:09.788Z,16.17
2018-10-19T12:06:37.766Z,13.27
2018-10-19T12:09:06.925Z,13.93
2018-10-19T12:11:34.955Z,11.37
2018-10-19T12:14:02.968Z,16.87
2018-10-19T12:16:31.028Z,18.27
2018-10-19T12:18:59.099Z,18.33
2018-10-19T12:21:27.138Z,15.97
2018-10-19T12:23:55.124Z,10.27
2018-10-19T12:26:23.124Z,15.20
2018-10-19T12:28:51.165Z,12.93
2018-10-19T12:31:19.182Z,12.70
2018-10-19T12:33:47.220Z,13.00
2018-10-19T12:36:15.234Z,11.43
2018-10-19T12:38:43.254Z,16.20
2018-10-19T12:41:11.304Z,10.43
2018-10-19T12:43:39.297Z,11.70
2018-10-19T12:46:13.770Z,14.17
2018-10-19T12:48:41.802Z,14.40
2018-10-19T12:51:09.855Z,14.07
2018-10-19T12:53:37.862Z,10.50
2018-10-19T12:56:05.873Z,9.33
2018-10-19T12:58:34.030Z,12.83
2018-10-19T13:01:02.044Z,10.20
2018-10-19T13:03:30.172Z,10.83
2018-10-19T13:05:58.137Z,12.00
2018-10-19T13:08:26.187Z,11.43
2018-10-19T13:10:54.209Z,14.23
2018-10-19T13:13:22.264Z,10.80
2018-10-19T13:15:50.281Z,11.50
2018-10-19T13:18:18.310Z,10.40
2018-10-19T13:20:46.317Z,14.43
2018-10-19T13:23:14.349Z,13.03
2018-10-19T13:25:42.371Z,10.27
2018-10-19T13:28:10.400Z,13.00
2018-10-19T13:30:38.731Z,11.10
2018-10-19T13:33:06.913Z,12.80
2018-10-19T13:35:34.844Z,10.63
2018-10-19T13:38:02.912Z,10.83
2018-10-19T13:40:31.446Z,9.37
2018-10-19T13:42:59.444Z,13.87
2018-10-19T13:45:27.526Z,13.63
2018-10-19T13:47:55.510Z,12.20
2018-10-19T13:50:23.546Z,8.83
2018-10-19T13:52:51.575Z,9.50
2018-10-19T13:55:19.594Z,8.37
2018-10-19T13:57:48.326Z,11.03
2018-10-19T14:00:16.310Z,10.73
2018-10-19T14:02:44.290Z,9.83
2018-10-19T14:05:12.406Z,9.83
2018-10-19T14:07:40.359Z,8.87
2018-10-19T14:10:08.824Z,14.97
2018-10-19T14:12:38.286Z,13.77
2018-10-19T14:15:06.611Z,12.57
2018-10-19T14:17:34.834Z,13.77
2018-10-19T14:20:02.861Z,10.60
2018-10-19T14:22:30.884Z,16.30
2018-10-19T14:24:59.263Z,10.80
2018-10-19T14:27:28.298Z,10.30
2018-10-19T14:29:56.323Z,8.80
2018-10-19T14:32:25.435Z,11.63
2018-10-19T14:34:53.506Z,13.43
2018-10-19T14:37:21.503Z,9.07
2018-10-19T14:39:50.013Z,9.20
2018-10-19T14:42:18.657Z,12.73
2018-10-19T14:44:47.332Z,13.80
2018-10-19T14:47:15.409Z,9.13
2018-10-19T14:49:44.394Z,9.70
2018-10-19T14:52:12.822Z,9.40
2018-10-19T14:54:40.946Z,8.73
2018-10-19T14:57:09.642Z,9.67
2018-10-19T14:59:37.703Z,9.67
2018-10-19T15:02:05.738Z,11.00
2018-10-19T15:04:33.848Z,10.70
2018-10-19T15:07:01.868Z,11.73
2018-10-19T15:09:29.978Z,12.67
2018-10-19T15:11:57.935Z,16.10
2018-10-19T15:14:25.929Z,10.10
2018-10-19T15:16:53.941Z,14.00
2018-10-19T15:19:21.973Z,15.77
2018-10-19T15:21:49.973Z,13.70
2018-10-19T15:24:18.075Z,19.90
2018-10-19T15:26:47.113Z,18.97
2018-10-19T15:29:15.166Z,9.90
2018-10-19T15:31:43.194Z,16.13
2018-10-19T15:34:11.213Z,13.57
2018-10-19T15:36:39.337Z,19.07
2018-10-19T15:39:08.915Z,10.03
2018-10-19T15:41:36.901Z,16.17
2018-10-19T15:44:05.278Z,9.80
2018-10-19T15:46:33.350Z,13.60
2018-10-19T15:49:01.405Z,11.43
2018-10-19T15:51:29.473Z,11.57
2018-10-19T15:53:57.496Z,8.93
2018-10-19T15:56:25.513Z,9.60
2018-10-19T15:58:56.213Z,9.20
2018-10-19T16:01:24.294Z,9.13
2018-10-19T16:03:55.049Z,8.57
2018-10-19T16:06:23.606Z,9.77
2018-10-19T16:08:52.281Z,10.10
2018-10-19T16:11:21.321Z,8.40
2018-10-19T16:13:49.337Z,9.00
2018-10-19T16:16:17.364Z,9.03
2018-10-19T16:18:45.361Z,9.00
2018-10-19T16:21:13.405Z,9.20
2018-10-19T16:23:41.385Z,9.17
2018-10-19T16:26:09.417Z,12.33
2018-10-19T16:28:37.429Z,10.53
2018-10-19T16:31:05.493Z,9.20
2018-10-19T16:33:33.515Z,10.80
2018-10-19T16:36:01.582Z,10.37
2018-10-19T16:38:29.589Z,10.10
2018-10-19T16:40:57.645Z,8.07
2018-10-19T16:43:25.691Z,8.83
2018-10-19T16:45:53.705Z,8.57
2018-10-19T16:48:21.718Z,8.40
2018-10-19T16:50:50.071Z,10.20
2018-10-19T16:53:18.105Z,8.60
2018-10-19T16:55:46.149Z,10.67
2018-10-19T16:58:14.251Z,9.50
2018-10-19T17:00:42.274Z,9.10
2018-10-19T17:03:10.384Z,7.90
2018-10-19T17:05:38.356Z,8.80
2018-10-19T17:08:06.364Z,9.70
2018-10-19T17:10:34.378Z,9.27
2018-10-19T17:13:02.405Z,8.13
2018-10-19T17:15:30.417Z,9.60
2018-10-19T17:18:00.029Z,10.13
2018-10-19T17:20:28.822Z,8.93
2018-10-19T17:22:56.852Z,8.37
2018-10-19T17:25:24.964Z,9.00
2018-10-19T17:27:52.913Z,9.63
2018-10-19T17:30:20.970Z,9.27
2018-10-19T17:32:49.327Z,9.97
2018-10-19T17:35:17.841Z,10.50
2018-10-19T17:37:46.657Z,8.87
2018-10-19T17:40:15.926Z,10.73
2018-10-19T17:42:43.974Z,9.00
2018-10-19T17:45:12.006Z,8.97
2018-10-19T17:47:42.365Z,10.23
2018-10-19T17:50:10.401Z,9.63
2018-10-19T17:52:38.597Z,10.47
2018-10-19T17:55:07.357Z,9.37
2018-10-19T17:57:35.384Z,9.80
2018-10-19T18:00:03.555Z,9.40
2018-10-19T18:02:31.644Z,9.57
2018-10-19T18:04:59.718Z,10.40
2018-10-19T18:07:28.694Z,11.17
2018-10-19T18:09:57.071Z,9.30
2018-10-19T18:12:26.894Z,10.17
2018-10-19T18:14:56.942Z,10.17
2018-10-19T18:17:24.921Z,9.70
2018-10-19T18:19:52.970Z,9.30
2018-10-19T18:22:21.205Z,9.37
2018-10-19T18:24:49.013Z,10.10
2018-10-19T18:27:18.552Z,10.03
2018-10-19T18:29:46.617Z,9.30
2018-10-19T18:32:17.549Z,9.80
2018-10-19T18:34:46.094Z,11.70
2018-10-19T18:37:14.121Z,11.50
2018-10-19T18:39:42.154Z,10.47
2018-10-19T18:42:10.159Z,9.43
2018-10-19T18:44:38.186Z,10.83
2018-10-19T18:47:06.241Z,11.07
2018-10-19T18:49:34.219Z,9.93
2018-10-19T18:52:04.321Z,11.80
2018-10-19T18:54:36.420Z,10.50
2018-10-19T18:57:05.342Z,10.93
2018-10-19T18:59:35.873Z,10.77
2018-10-19T19:02:10.698Z,11.43
2018-10-19T19:04:45.667Z,10.93
2018-10-19T19:07:21.585Z,10.90
2018-10-19T19:09:57.286Z,10.00
2018-10-19T19:12:26.160Z,10.50
2018-10-19T19:14:58.786Z,11.27
2018-10-19T19:17:30.762Z,12.10
2018-10-19T19:20:05.820Z,10.73
2018-10-19T19:22:36.005Z,10.70
2018-10-19T19:25:10.422Z,11.50
2018-10-19T19:27:39.453Z,11.10
2018-10-19T19:30:09.214Z,9.80
2018-10-19T19:32:42.958Z,11.53
2018-10-19T19:35:11.021Z,12.87
2018-10-19T19:37:41.234Z,11.40
2018-10-19T19:40:09.863Z,11.50
2018-10-19T19:42:44.822Z,13.33
2018-10-19T19:45:19.025Z,14.10
2018-10-19T19:47:53.554Z,13.07
2018-10-19T19:50:23.132Z,15.07
2018-10-19T19:52:51.824Z,12.10
2018-10-19T19:55:22.061Z,15.20
2018-10-19T19:57:50.361Z,14.30
2018-10-19T20:00:25.757Z,12.47
2018-10-19T20:02:53.853Z,15.43
2018-10-19T20:05:24.157Z,14.00
2018-10-19T20:07:53.711Z,15.27
2018-10-19T20:10:26.794Z,15.00
2018-10-19T20:12:56.828Z,19.17
2018-10-19T20:15:26.365Z,15.03
2018-10-19T20:18:01.697Z,13.20
2018-10-19T20:20:31.368Z,14.00
2018-10-19T20:23:00.116Z,14.77
2018-10-19T20:25:30.961Z,14.10
2018-10-19T20:28:00.121Z,12.80
2018-10-19T20:30:29.394Z,14.07
2018-10-19T20:33:01.049Z,14.57
2018-10-19T20:35:31.253Z,14.03
2018-10-19T20:38:00.446Z,13.47
2018-10-19T20:40:29.708Z,14.80
2018-10-19T20:42:59.165Z,16.37
2018-10-19T20:45:29.430Z,15.50
2018-10-19T20:48:00.451Z,16.57
2018-10-19T20:50:29.790Z,14.77
2018-10-19T20:53:00.053Z,14.00
2018-10-19T20:55:28.407Z,14.10
2018-10-19T20:58:00.497Z,15.20
2018-10-19T21:00:29.905Z,14.47
2018-10-19T21:03:07.467Z,14.60
2018-10-19T21:05:35.489Z,15.27
2018-10-19T21:08:12.505Z,13.73
2018-10-19T21:10:40.513Z,14.93
2018-10-19T21:13:08.576Z,17.80
2018-10-19T21:15:37.851Z,14.33
2018-10-19T21:18:08.642Z,16.70
2018-10-19T21:20:39.723Z,16.73
2018-10-19T21:23:09.591Z,16.13
2018-10-19T21:25:41.037Z,16.07
2018-10-19T21:28:09.122Z,15.47
2018-10-19T21:30:38.378Z,16.10
2018-10-19T21:33:08.045Z,15.10
2018-10-19T21:35:39.435Z,12.47
2018-10-19T21:38:07.760Z,14.53
2018-10-19T21:40:36.410Z,14.73
2018-10-19T21:43:14.434Z,13.90
2018-10-19T21:45:43.101Z,13.80
2018-10-19T21:48:12.482Z,15.37
2018-10-19T21:50:44.873Z,15.13
2018-10-19T21:53:16.691Z,14.30
2018-10-19T21:55:45.393Z,14.37
2018-10-19T21:58:13.789Z,15.33
2018-10-19T22:00:44.186Z,15.80
2018-10-19T22:03:14.179Z,13.53
2018-10-19T22:05:43.002Z,16.53
2018-10-19T22:08:12.969Z,15.20
2018-10-19T22:10:41.982Z,13.83
2018-10-19T22:13:14.577Z,14.43
2018-10-19T22:15:43.153Z,15.50
2018-10-19T22:18:13.271Z,13.50
2018-10-19T22:20:43.497Z,16.43
2018-10-19T22:23:12.801Z,14.40
2018-10-19T22:25:41.742Z,14.20
2018-10-19T22:28:10.778Z,15.10
2018-10-19T22:30:41.220Z,14.90
2018-10-19T22:33:09.777Z,15.20
2018-10-19T22:35:38.849Z,14.60
2018-10-19T22:38:07.374Z,14.80
2018-10-19T22:40:36.177Z,14.50
2018-10-19T22:43:04.231Z,13.53
2018-10-19T22:45:32.746Z,13.67
2018-10-19T22:48:01.733Z,14.67
2018-10-19T22:50:30.566Z,13.70
2018-10-19T22:52:58.604Z,14.30
2018-10-19T22:55:28.284Z,14.37
2018-10-19T22:57:56.353Z,15.20
2018-10-19T23:00:24.587Z,13.87
2018-10-19T23:02:53.033Z,14.43
2018-10-19T23:05:21.537Z,14.40
2018-10-19T23:07:49.606Z,13.83
2018-10-19T23:10:17.613Z,15.20
2018-10-19T23:12:48.105Z,16.17
2018-10-19T23:15:17.557Z,16.27
2018-10-19T23:17:47.145Z,13.60
2018-10-19T23:20:22.417Z,13.50
2018-10-19T23:22:51.022Z,14.23
2018-10-19T23:25:19.718Z,14.67
2018-10-19T23:27:47.762Z,14.10
2018-10-19T23:30:16.773Z,14.53
2018-10-19T23:32:44.842Z,15.97
2018-10-19T23:35:12.938Z,15.93
2018-10-19T23:37:40.890Z,14.27
2018-10-19T23:40:09.021Z,14.03
2018-10-19T23:42:37.061Z,13.77
2018-10-19T23:45:05.683Z,14.40
2018-10-19T23:47:34.286Z,13.50
2018-10-19T23:50:02.318Z,14.43
2018-10-19T23:52:31.553Z,14.53
2018-10-19T23:55:01.600Z,15.10
2018-10-19T23:57:29.599Z,14.17
2018-10-19T23:59:57.638Z,14.27
